createdAt,value
2023-03-21T00:01:00.869Z,7.45
2023-03-21T00:03:29.142Z,7.60
2023-03-21T00:06:00.393Z,8.73
2023-03-21T00:08:30.507Z,7.90
2023-03-21T00:11:08.829Z,8.43
2023-03-21T00:13:42.744Z,7.20
2023-03-21T00:16:24.521Z,7.82
2023-03-21T00:19:10.746Z,7.43
2023-03-21T00:21:55.691Z,7.68
2023-03-21T00:24:31.876Z,7.53
2023-03-21T00:27:21.968Z,7.38
2023-03-21T00:29:52.340Z,6.97
2023-03-21T00:32:22.999Z,7.22
2023-03-21T00:35:21.562Z,6.95
2023-03-21T00:41:54.578Z,5.83
2023-03-21T00:44:27.269Z,6.40
2023-03-21T00:47:06.620Z,6.72
2023-03-21T00:49:35.259Z,7.35
2023-03-21T00:52:17.107Z,6.57
2023-03-21T00:54:47.509Z,5.93
2023-03-21T00:57:22.083Z,5.43
2023-03-21T00:59:53.276Z,5.90
2023-03-21T01:02:23.354Z,6.38
2023-03-21T01:04:52.327Z,5.97
2023-03-21T01:07:23.428Z,6.38
2023-03-21T01:09:53.439Z,6.80
2023-03-21T01:12:23.701Z,5.82
2023-03-21T01:14:52.088Z,5.82
2023-03-21T01:17:22.244Z,6.15
2023-03-21T01:19:52.250Z,5.63
2023-03-21T01:22:28.899Z,5.88
2023-03-21T01:25:05.709Z,6.25
2023-03-21T01:27:43.510Z,6.13
2023-03-21T01:30:20.564Z,6.25
2023-03-21T01:32:59.465Z,6.30
2023-03-21T01:35:28.396Z,6.25
2023-03-21T01:38:10.015Z,6.07
2023-03-21T01:40:41.155Z,6.30
2023-03-21T01:43:33.780Z,5.78
2023-03-21T01:46:45.363Z,5.95
2023-03-21T01:49:56.804Z,6.20
2023-03-21T01:52:39.192Z,5.75
2023-03-21T01:58:11.695Z,5.63
2023-03-21T02:00:50.767Z,6.30
2023-03-21T02:03:38.654Z,5.47
2023-03-21T02:06:31.900Z,6.78
2023-03-21T02:09:18.795Z,5.10
2023-03-21T02:11:50.220Z,5.60
2023-03-21T02:14:29.011Z,6.10
2023-03-21T02:17:36.926Z,6.28
2023-03-21T02:20:49.748Z,5.35
2023-03-21T02:24:05.470Z,4.85
2023-03-21T02:27:04.881Z,5.63
2023-03-21T02:29:55.936Z,5.10
2023-03-21T02:32:47.069Z,5.13
2023-03-21T02:35:54.182Z,5.45
2023-03-21T02:38:33.797Z,4.05
2023-03-21T02:41:10.071Z,3.55
2023-03-21T02:43:49.592Z,3.80
2023-03-21T02:46:24.240Z,4.40
2023-03-21T02:49:07.673Z,3.80
2023-03-21T02:51:38.340Z,4.00
2023-03-21T02:54:34.906Z,4.32
2023-03-21T02:57:06.969Z,5.47
2023-03-21T02:59:44.379Z,4.43
2023-03-21T03:02:23.372Z,4.93
2023-03-21T03:04:50.730Z,4.53
2023-03-21T03:07:41.698Z,3.85
2023-03-21T03:10:08.902Z,4.28
2023-03-21T03:13:09.328Z,4.05
2023-03-21T03:15:53.078Z,4.25
2023-03-21T03:18:54.976Z,3.67
2023-03-21T03:21:32.078Z,4.10
2023-03-21T03:24:23.527Z,3.45
2023-03-21T03:27:17.804Z,3.90
2023-03-21T03:29:48.929Z,4.40
2023-03-21T03:32:30.501Z,4.25
2023-03-21T03:35:00.349Z,4.18
2023-03-21T03:37:38.150Z,4.65
2023-03-21T03:40:19.224Z,5.03
2023-03-21T03:43:11.633Z,4.50
2023-03-21T03:46:03.014Z,4.50
2023-03-21T03:48:46.697Z,4.93
2023-03-21T03:51:40.444Z,5.03
2023-03-21T03:54:38.407Z,5.53
2023-03-21T03:57:09.105Z,5.30
2023-03-21T03:59:39.320Z,5.25
2023-03-21T04:02:32.281Z,4.82
2023-03-21T04:05:04.544Z,5.63
2023-03-21T04:07:33.791Z,5.88
2023-03-21T04:10:05.270Z,6.47
2023-03-21T04:12:40.838Z,5.10
2023-03-21T04:15:24.526Z,8.50
2023-03-21T04:18:00.512Z,6.95
2023-03-21T04:20:37.060Z,6.38
2023-03-21T04:23:06.616Z,6.53
2023-03-21T04:25:36.896Z,5.18
2023-03-21T04:28:31.638Z,6.95
2023-03-21T04:31:25.513Z,7.05
2023-03-21T04:34:03.248Z,6.22
2023-03-21T04:36:39.209Z,6.57
2023-03-21T04:39:49.633Z,6.53
2023-03-21T04:42:42.804Z,7.22
2023-03-21T04:45:17.209Z,6.72
2023-03-21T04:47:48.223Z,6.82
2023-03-21T04:50:22.164Z,8.07
2023-03-21T04:52:49.322Z,7.68
2023-03-21T04:55:23.962Z,7.72
2023-03-21T04:57:51.458Z,6.75
2023-03-21T05:00:28.064Z,7.32
2023-03-21T05:02:58.405Z,7.28
2023-03-21T05:05:43.782Z,6.75
2023-03-21T05:08:13.608Z,6.88
2023-03-21T05:10:41.346Z,7.32
2023-03-21T05:13:11.557Z,7.43
2023-03-21T05:15:46.691Z,8.20
2023-03-21T05:18:15.741Z,7.75
2023-03-21T05:21:04.288Z,6.85
2023-03-21T05:23:38.321Z,7.25
2023-03-21T05:26:10.859Z,7.60
2023-03-21T05:28:54.199Z,6.75
2023-03-21T05:31:22.681Z,8.20
2023-03-21T05:34:05.255Z,7.38
2023-03-21T05:36:36.841Z,7.22
2023-03-21T05:39:31.101Z,7.72
2023-03-21T05:42:03.754Z,7.53
2023-03-21T05:48:43.909Z,5.38
2023-03-21T05:53:48.662Z,6.72
2023-03-21T05:56:19.124Z,6.82
2023-03-21T05:59:01.970Z,7.57
2023-03-21T06:01:33.524Z,7.88
2023-03-21T06:04:13.330Z,6.47
2023-03-21T06:06:42.567Z,6.18
2023-03-21T06:09:11.863Z,6.10
2023-03-21T06:11:47.190Z,6.75
2023-03-21T06:14:35.048Z,7.43
2023-03-21T06:17:32.613Z,6.93
2023-03-21T06:20:07.589Z,7.32
2023-03-21T06:22:45.926Z,7.60
2023-03-21T06:25:18.576Z,7.22
2023-03-21T06:27:45.683Z,6.68
2023-03-21T06:30:13.644Z,7.13
2023-03-21T06:32:53.288Z,6.85
2023-03-21T06:35:26.899Z,6.75
2023-03-21T06:40:40.485Z,7.05
2023-03-21T06:43:08.958Z,6.13
2023-03-21T06:45:37.396Z,5.88
2023-03-21T06:48:09.264Z,5.90
2023-03-21T06:50:50.353Z,6.70
2023-03-21T06:53:21.261Z,6.43
2023-03-21T06:56:11.419Z,6.20
2023-03-21T06:58:41.755Z,7.30
2023-03-21T07:01:17.650Z,5.65
2023-03-21T07:03:59.758Z,5.85
2023-03-21T07:06:29.106Z,5.47
2023-03-21T07:08:58.947Z,5.60
2023-03-21T07:11:27.401Z,4.90
2023-03-21T07:14:06.527Z,4.70
2023-03-21T07:16:36.776Z,4.68
2023-03-21T07:19:07.447Z,5.20
2023-03-21T07:22:10.348Z,3.67
2023-03-21T07:24:38.409Z,4.93
2023-03-21T07:27:08.275Z,4.03
2023-03-21T07:29:35.726Z,3.17
2023-03-21T07:32:02.941Z,4.20
2023-03-21T07:34:33.741Z,3.85
2023-03-21T07:37:07.538Z,2.58
2023-03-21T07:39:36.566Z,3.30
2023-03-21T07:42:04.768Z,3.53
2023-03-21T07:44:38.152Z,3.40
2023-03-21T07:47:07.572Z,3.33
2023-03-21T07:49:35.747Z,2.67
2023-03-21T07:52:07.898Z,3.20
2023-03-21T07:54:36.460Z,3.85
2023-03-21T07:57:04.464Z,2.78
2023-03-21T07:59:31.683Z,3.55
2023-03-21T08:01:58.922Z,3.88
2023-03-21T08:04:26.413Z,4.05
2023-03-21T08:06:54.912Z,4.18
2023-03-21T08:09:22.230Z,5.22
2023-03-21T08:11:49.579Z,4.20
2023-03-21T08:14:17.008Z,4.13
2023-03-21T08:16:46.394Z,4.28
2023-03-21T08:19:19.722Z,4.25
2023-03-21T08:21:52.100Z,4.63
2023-03-21T08:24:23.192Z,4.07
2023-03-21T08:27:16.712Z,4.35
2023-03-21T08:29:45.169Z,4.17
2023-03-21T08:32:14.336Z,3.90
2023-03-21T08:34:42.753Z,5.13
2023-03-21T08:37:09.913Z,4.43
2023-03-21T08:39:37.475Z,4.65
2023-03-21T08:42:05.677Z,4.72
2023-03-21T08:44:41.084Z,5.38
2023-03-21T08:47:10.571Z,4.32
2023-03-21T08:49:38.996Z,4.72
2023-03-21T08:52:10.196Z,4.53
2023-03-21T08:54:37.713Z,4.70
2023-03-21T08:57:08.982Z,2.92
2023-03-21T08:59:42.345Z,3.95
2023-03-21T09:02:26.237Z,4.22
2023-03-21T09:04:55.632Z,3.88
2023-03-21T09:07:26.595Z,4.55
2023-03-21T09:10:19.864Z,4.25
2023-03-21T09:12:50.138Z,3.67
2023-03-21T09:16:05.935Z,4.20
2023-03-21T09:19:10.437Z,3.08
2023-03-21T09:21:38.365Z,3.67
2023-03-21T09:24:09.821Z,4.78
2023-03-21T09:26:46.343Z,3.00
2023-03-21T09:29:13.769Z,4.25
2023-03-21T09:31:43.976Z,3.65
2023-03-21T09:34:12.783Z,3.67
2023-03-21T09:36:44.383Z,3.70
2023-03-21T09:39:20.610Z,4.07
2023-03-21T09:42:12.650Z,4.20
2023-03-21T09:45:12.963Z,3.03
2023-03-21T09:47:54.427Z,4.05
2023-03-21T09:50:33.562Z,3.10
2023-03-21T09:53:16.653Z,4.22
2023-03-21T09:55:44.777Z,4.68
2023-03-21T09:58:43.488Z,4.13
2023-03-21T10:01:36.811Z,4.05
2023-03-21T10:04:12.058Z,4.13
2023-03-21T10:06:42.846Z,3.75
2023-03-21T10:09:21.636Z,4.03
2023-03-21T10:12:09.241Z,3.47
2023-03-21T10:14:49.729Z,3.85
2023-03-21T10:17:42.703Z,4.20
2023-03-21T10:20:11.993Z,3.28
2023-03-21T10:22:47.248Z,5.10
2023-03-21T10:25:22.291Z,3.90
2023-03-21T10:27:55.849Z,3.70
2023-03-21T10:30:44.914Z,3.85
2023-03-21T10:33:16.012Z,3.45
2023-03-21T10:35:50.773Z,3.80
2023-03-21T10:38:23.824Z,3.88
2023-03-21T10:40:53.438Z,3.80
2023-03-21T10:43:26.657Z,3.70
2023-03-21T10:45:58.273Z,3.75
2023-03-21T10:48:35.126Z,3.88
2023-03-21T10:51:02.504Z,3.67
2023-03-21T10:53:35.508Z,3.42
2023-03-21T10:56:06.954Z,3.67
2023-03-21T10:58:39.835Z,3.80
2023-03-21T11:01:14.844Z,4.57
2023-03-21T11:03:48.570Z,4.22
2023-03-21T11:06:21.987Z,4.93
2023-03-21T11:08:56.972Z,4.32
2023-03-21T11:11:39.888Z,4.50
2023-03-21T11:14:46.127Z,5.13
2023-03-21T11:17:20.882Z,5.10
2023-03-21T11:20:06.646Z,5.00
2023-03-21T11:22:43.506Z,5.07
2023-03-21T11:25:41.587Z,4.28
2023-03-21T11:31:05.699Z,5.00
2023-03-21T11:33:47.993Z,5.53
2023-03-21T11:36:22.065Z,5.43
2023-03-21T11:39:45.241Z,4.78
2023-03-21T11:42:33.193Z,4.90
2023-03-21T11:45:39.095Z,5.18
2023-03-21T11:48:14.966Z,5.13
2023-03-21T11:50:49.447Z,4.63
2023-03-21T11:53:40.586Z,4.20
2023-03-21T11:56:34.072Z,4.53
2023-03-21T11:59:30.919Z,3.92
2023-03-21T12:02:15.088Z,3.53
2023-03-21T12:05:01.787Z,4.82
2023-03-21T12:07:42.893Z,4.07
2023-03-21T12:10:27.517Z,4.32
2023-03-21T12:13:19.779Z,5.15
2023-03-21T12:16:23.949Z,4.65
2023-03-21T12:19:23.140Z,4.65
2023-03-21T12:22:41.421Z,5.10
2023-03-21T12:25:46.284Z,4.82
2023-03-21T12:28:50.396Z,4.32
2023-03-21T12:32:05.169Z,4.80
2023-03-21T12:35:22.906Z,4.78
2023-03-21T12:38:18.083Z,4.25
2023-03-21T12:41:09.534Z,5.25
2023-03-21T12:43:55.353Z,4.45
2023-03-21T12:46:26.159Z,4.07
2023-03-21T12:49:03.057Z,5.32
2023-03-21T12:51:38.186Z,5.70
2023-03-21T12:54:32.435Z,5.20
2023-03-21T12:57:11.755Z,5.25
2023-03-21T13:00:03.463Z,4.00
2023-03-21T13:02:54.199Z,4.30
2023-03-21T13:05:36.114Z,5.20
2023-03-21T13:08:13.518Z,5.27
2023-03-21T13:10:43.783Z,4.47
2023-03-21T13:13:50.416Z,4.70
2023-03-21T13:16:40.232Z,4.30
2023-03-21T13:19:28.547Z,4.57
2023-03-21T13:22:32.293Z,4.78
2023-03-21T13:25:06.820Z,4.25
2023-03-21T13:27:41.540Z,5.28
2023-03-21T13:30:37.239Z,4.82
2023-03-21T13:33:08.549Z,4.13
2023-03-21T13:35:43.507Z,4.50
2023-03-21T13:38:22.959Z,4.85
2023-03-21T13:41:13.830Z,3.92
2023-03-21T13:43:53.761Z,4.03
2023-03-21T13:46:27.154Z,3.80
2023-03-21T13:49:02.853Z,3.83
2023-03-21T13:51:54.520Z,3.83
2023-03-21T13:54:46.604Z,3.75
2023-03-21T13:57:32.096Z,4.07
2023-03-21T14:00:17.811Z,3.97
2023-03-21T14:03:20.626Z,4.13
2023-03-21T14:06:18.731Z,5.05
2023-03-21T14:08:48.037Z,4.10
2023-03-21T14:11:46.739Z,4.75
2023-03-21T14:14:15.933Z,4.20
2023-03-21T14:16:44.997Z,4.78
2023-03-21T14:19:12.889Z,4.88
2023-03-21T14:21:50.316Z,5.18
2023-03-21T14:24:20.957Z,5.50
2023-03-21T14:26:54.926Z,5.85
2023-03-21T14:29:34.398Z,5.50
2023-03-21T14:32:03.546Z,6.00
2023-03-21T14:34:35.270Z,5.65
2023-03-21T14:37:10.755Z,5.03
2023-03-21T14:39:39.320Z,5.43
2023-03-21T14:42:11.877Z,6.05
2023-03-21T14:47:29.857Z,5.30
2023-03-21T14:50:01.175Z,5.75
2023-03-21T14:52:33.579Z,5.97
2023-03-21T14:55:14.786Z,5.82
2023-03-21T14:57:45.585Z,5.55
2023-03-21T15:00:28.942Z,5.45
2023-03-21T15:02:59.785Z,5.95
2023-03-21T15:05:38.576Z,6.40
2023-03-21T15:08:12.651Z,6.22
2023-03-21T15:11:07.182Z,5.65
2023-03-21T15:13:54.753Z,6.47
2023-03-21T15:16:23.675Z,6.00
2023-03-21T15:18:54.232Z,6.03
2023-03-21T15:21:32.333Z,5.72
2023-03-21T15:24:26.073Z,6.75
2023-03-21T15:27:00.952Z,6.25
2023-03-21T15:29:47.529Z,6.28
2023-03-21T15:32:40.460Z,5.97
2023-03-21T15:35:16.409Z,5.70
2023-03-21T15:37:43.807Z,6.25
2023-03-21T15:40:26.055Z,5.85
2023-03-21T15:43:06.496Z,5.85
2023-03-21T15:45:48.229Z,6.65
2023-03-21T15:48:18.391Z,6.70
2023-03-21T15:50:59.491Z,6.30
2023-03-21T15:53:26.488Z,7.70
2023-03-21T15:56:02.142Z,8.25
2023-03-21T15:58:36.522Z,7.93
2023-03-21T16:01:18.357Z,8.43
2023-03-21T16:04:02.801Z,8.67
2023-03-21T16:06:34.672Z,9.23
2023-03-21T16:11:45.849Z,8.88
2023-03-21T16:14:16.923Z,7.95
2023-03-21T16:16:45.618Z,8.80
2023-03-21T16:19:14.462Z,9.23
2023-03-21T16:21:44.673Z,9.63
2023-03-21T16:24:13.557Z,9.70
2023-03-21T16:26:52.128Z,10.55
2023-03-21T16:29:19.898Z,9.20
2023-03-21T16:31:49.154Z,10.45
2023-03-21T16:34:16.637Z,7.63
2023-03-21T16:36:52.065Z,8.73
2023-03-21T16:39:20.700Z,8.25
2023-03-21T16:41:51.007Z,8.35
2023-03-21T16:44:19.976Z,8.73
2023-03-21T16:46:47.502Z,8.20
2023-03-21T16:49:28.787Z,7.13
2023-03-21T16:51:59.681Z,7.80
2023-03-21T16:54:27.307Z,7.78
2023-03-21T16:56:59.765Z,6.88
2023-03-21T16:59:27.039Z,6.55
2023-03-21T17:01:55.680Z,6.53
2023-03-21T17:04:27.897Z,6.93
2023-03-21T17:06:56.839Z,6.70
2023-03-21T17:09:29.448Z,6.88
2023-03-21T17:11:56.516Z,7.15
2023-03-21T17:14:25.606Z,7.18
2023-03-21T17:16:52.976Z,7.90
2023-03-21T17:19:28.161Z,6.60
2023-03-21T17:21:57.363Z,7.72
2023-03-21T17:24:26.695Z,6.95
2023-03-21T17:26:55.421Z,9.90
2023-03-21T17:29:22.539Z,10.23
2023-03-21T17:31:51.997Z,9.55
2023-03-21T17:34:20.833Z,11.40
2023-03-21T17:36:51.753Z,12.32
2023-03-21T17:39:26.676Z,13.85
2023-03-21T17:41:54.752Z,14.35
2023-03-21T17:44:24.505Z,15.55
2023-03-21T17:46:55.063Z,14.60
2023-03-21T17:49:25.571Z,16.15
2023-03-21T17:51:53.712Z,15.40
2023-03-21T17:54:21.012Z,12.98
2023-03-21T17:56:49.163Z,12.63
2023-03-21T17:59:16.858Z,11.68
2023-03-21T18:01:44.523Z,10.68
2023-03-21T18:04:11.758Z,10.80
2023-03-21T18:06:43.199Z,11.07
2023-03-21T18:09:21.514Z,8.52
2023-03-21T18:11:50.969Z,7.32
2023-03-21T18:14:27.883Z,8.10
2023-03-21T18:16:57.479Z,7.38
2023-03-21T18:19:30.596Z,7.35
2023-03-21T18:21:58.687Z,7.05
2023-03-21T18:24:26.419Z,6.20
2023-03-21T18:26:56.325Z,6.90
2023-03-21T18:32:11.442Z,6.40
2023-03-21T18:34:42.835Z,6.57
2023-03-21T18:37:13.347Z,6.68
2023-03-21T18:39:45.413Z,6.45
2023-03-21T18:42:19.154Z,7.15
2023-03-21T18:44:51.607Z,5.90
2023-03-21T18:47:22.534Z,5.97
2023-03-21T18:52:37.927Z,5.93
2023-03-21T18:55:07.421Z,6.05
2023-03-21T18:57:38.248Z,6.40
2023-03-21T19:00:13.321Z,6.57
2023-03-21T19:02:47.061Z,5.25
2023-03-21T19:05:18.002Z,6.63
2023-03-21T19:07:51.409Z,6.32
2023-03-21T19:10:22.834Z,6.88
2023-03-21T19:12:54.002Z,6.88
2023-03-21T19:15:32.322Z,7.82
2023-03-21T19:20:47.505Z,7.30
2023-03-21T19:23:21.643Z,7.10
2023-03-21T19:25:52.369Z,6.95
2023-03-21T19:28:21.682Z,7.22
2023-03-21T19:30:50.982Z,7.65
2023-03-21T19:33:20.845Z,8.10
2023-03-21T19:36:08.948Z,8.43
2023-03-21T19:38:38.411Z,9.13
2023-03-21T19:41:05.673Z,8.02
2023-03-21T19:43:36.788Z,8.15
2023-03-21T19:46:04.288Z,8.15
2023-03-21T19:48:33.882Z,7.78
2023-03-21T19:51:26.751Z,7.13
2023-03-21T19:54:02.282Z,8.15
2023-03-21T19:56:31.412Z,6.97
2023-03-21T19:58:59.384Z,6.00
2023-03-21T20:01:32.297Z,4.60
2023-03-21T20:04:00.702Z,3.72
2023-03-21T20:06:37.378Z,4.80
2023-03-21T20:09:43.211Z,3.90
2023-03-21T20:11:57.771Z,4.03
2023-03-21T20:16:55.564Z,4.35
2023-03-21T20:19:23.298Z,6.30
2023-03-21T20:21:57.874Z,6.90
2023-03-21T20:24:27.631Z,7.30
2023-03-21T20:26:55.799Z,7.57
2023-03-21T20:32:17.710Z,6.20
2023-03-21T20:34:47.538Z,6.40
2023-03-21T20:37:18.335Z,6.00
2023-03-21T20:39:48.677Z,5.97
2023-03-21T20:42:17.028Z,5.70
2023-03-21T20:44:58.224Z,5.38
2023-03-21T20:47:26.929Z,5.17
2023-03-21T20:49:56.975Z,4.75
2023-03-21T20:52:57.938Z,4.80
2023-03-21T20:55:15.408Z,3.65
2023-03-21T20:57:48.440Z,4.00
2023-03-21T21:00:18.413Z,4.05
2023-03-21T21:02:49.794Z,4.60
2023-03-21T21:05:35.428Z,4.97
2023-03-21T21:08:04.126Z,5.82
2023-03-21T21:10:44.826Z,6.68
2023-03-21T21:13:21.645Z,6.15
2023-03-21T21:15:48.711Z,6.90
2023-03-21T21:18:19.227Z,6.88
2023-03-21T21:20:52.667Z,6.60
2023-03-21T21:23:22.193Z,6.00
2023-03-21T21:25:54.834Z,6.25
2023-03-21T21:30:55.974Z,6.50
2023-03-21T21:33:23.216Z,5.20
2023-03-21T21:35:55.003Z,5.88
2023-03-21T21:38:24.404Z,5.45
2023-03-21T21:40:52.344Z,4.95
2023-03-21T21:43:20.689Z,5.03
2023-03-21T21:45:49.687Z,4.30
2023-03-21T21:48:17.025Z,5.18
2023-03-21T21:50:52.105Z,4.30
2023-03-21T21:53:21.719Z,4.40
2023-03-21T21:55:49.213Z,4.63
2023-03-21T21:58:21.332Z,4.35
2023-03-21T22:00:59.487Z,4.68
2023-03-21T22:03:28.136Z,4.20
2023-03-21T22:06:02.957Z,3.65
2023-03-21T22:08:30.717Z,3.65
2023-03-21T22:11:04.861Z,4.18
2023-03-21T22:13:34.975Z,3.95
2023-03-21T22:16:03.232Z,3.03
2023-03-21T22:18:36.313Z,4.10
2023-03-21T22:21:07.704Z,3.33
2023-03-21T22:23:36.946Z,3.22
2023-03-21T22:26:05.379Z,3.45
2023-03-21T22:28:36.493Z,3.33
2023-03-21T22:34:32.850Z,3.70
2023-03-21T22:37:04.315Z,3.47
2023-03-21T22:39:47.778Z,4.15
2023-03-21T22:42:19.034Z,4.00
2023-03-21T22:44:52.925Z,4.38
2023-03-21T22:47:26.380Z,4.97
2023-03-21T22:50:22.730Z,5.80
2023-03-21T22:52:55.826Z,4.82
2023-03-21T22:55:26.056Z,5.95
2023-03-21T23:00:41.197Z,5.72
2023-03-21T23:03:13.112Z,7.05
2023-03-21T23:05:44.696Z,8.18
2023-03-21T23:08:14.873Z,8.60
2023-03-21T23:10:44.059Z,8.95
2023-03-21T23:13:23.004Z,9.50
2023-03-21T23:15:53.633Z,10.18
2023-03-21T23:18:22.893Z,10.68
2023-03-21T23:20:50.268Z,10.43
2023-03-21T23:23:17.429Z,8.52
2023-03-21T23:25:49.280Z,10.18
2023-03-21T23:28:16.840Z,10.32
2023-03-21T23:30:47.860Z,9.07
2023-03-21T23:33:15.162Z,9.88
2023-03-21T23:35:46.143Z,10.02
2023-03-21T23:38:21.092Z,9.13
2023-03-21T23:40:48.757Z,9.48
2023-03-21T23:43:20.163Z,7.97
2023-03-21T23:45:53.068Z,7.60
2023-03-21T23:48:21.470Z,8.68
2023-03-21T23:50:48.639Z,7.50
2023-03-21T23:53:18.840Z,7.97
2023-03-21T23:55:51.865Z,8.85
2023-03-21T23:58:20.321Z,8.82
